This is the latest recevied weather packets stored in our database for station/object OE6PWE-13. If no packets are shown the sender has not sent any weather packets the latest 10 day(s).
| Time | Temp. | Humidity | Pressure | Rain* | Wind** | Luminosity | Snow |
|---|---|---|---|---|---|---|---|
| 1777758313 | 10° C | 81% | 1021 hPa | 0 mm | - | - | - |
| 1777757419 | 10° C | 79% | 1021 hPa | 0 mm | - | - | - |
| 1777756513 | 10.56° C | 80% | 1021 hPa | 0 mm | - | - | - |
| 1777755621 | 11.11° C | 77% | 1021 hPa | 0 mm | - | - | - |
| 1777754713 | 11.11° C | 76% | 1021 hPa | 0 mm | - | - | - |
| 1777753821 | 11.67° C | 75% | 1021 hPa | 0 mm | - | - | - |
| 1777752913 | 11.67° C | 74% | 1021 hPa | 0 mm | - | - | - |
| 1777752021 | 12.22° C | 74% | 1021 hPa | 0 mm | - | - | - |
| 1777751113 | 13.33° C | 71% | 1020 hPa | 0 mm | - | - | - |
| 1777750221 | 13.89° C | 68% | 1020 hPa | 0 mm | - | - | - |
| 1777749313 | 15° C | 63% | 1020 hPa | 0 mm | - | - | - |
| 1777747513 | 16.67° C | 56% | 1019 hPa | 0 mm | - | - | - |
| 1777746620 | 17.78° C | 53% | 1019 hPa | 0 mm | - | - | - |
| 1777745713 | 19.44° C | 49% | 1018 hPa | 0 mm | - | - | - |
| 1777744821 | 21.11° C | 45% | 1018 hPa | 0 mm | - | - | - |
| 1777743913 | 21.67° C | 42% | 1018 hPa | 0 mm | - | - | - |
| 1777742113 | 23.33° C | 39% | 1018 hPa | 0 mm | - | - | - |
| 1777741221 | 23.89° C | 38% | 1018 hPa | 0 mm | - | - | - |
| 1777740318 | 23.89° C | 36% | 1018 hPa | 0 mm | - | - | - |
| 1777739419 | 23.89° C | 36% | 1018 hPa | 0 mm | - | - | - |
| 1777738513 | 24.44° C | 35% | 1018 hPa | 0 mm | - | - | - |
| 1777736713 | 25° C | 34% | 1018 hPa | 0 mm | - | - | - |
| 1777735819 | 25° C | 34% | 1018 hPa | 0 mm | - | - | - |
| 1777734913 | 25.56° C | 34% | 1019 hPa | 0 mm | - | - | - |
| 1777734021 | 25.56° C | 33% | 1019 hPa | 0 mm | - | - | - |
* Rain latest hour (hover to see other rain measurements)
** Current wind speed in m/s (hover to see current wind gust speed)